createdAt,value
2019-04-23T00:03:05.501Z,14.57
2019-04-23T00:05:51.452Z,14.51
2019-04-23T00:08:17.521Z,14.46
2019-04-23T00:10:42.553Z,14.45
2019-04-23T00:13:24.768Z,14.45
2019-04-23T00:16:02.997Z,14.47
2019-04-23T00:18:36.826Z,14.40
2019-04-23T00:21:38.146Z,14.39
2019-04-23T00:24:19.271Z,14.36
2019-04-23T00:26:42.949Z,14.42
2019-04-23T00:29:11.709Z,14.30
2019-04-23T00:31:44.281Z,14.33
2019-04-23T00:34:15.803Z,14.38
2019-04-23T00:36:51.605Z,14.40
2019-04-23T00:39:23.451Z,14.39
2019-04-23T00:41:54.639Z,14.41
2019-04-23T00:44:37.780Z,14.37
2019-04-23T00:46:57.485Z,14.40
2019-04-23T00:49:37.085Z,14.30
2019-04-23T00:52:09.453Z,14.26
2019-04-23T00:54:32.662Z,14.27
2019-04-23T00:57:07.487Z,14.26
2019-04-23T00:59:52.196Z,14.27
2019-04-23T01:02:14.193Z,14.31
2019-04-23T01:04:51.029Z,14.28
2019-04-23T01:07:22.458Z,14.27
2019-04-23T01:10:06.159Z,14.23
2019-04-23T01:12:36.142Z,14.26
2019-04-23T01:15:02.509Z,14.27
2019-04-23T01:17:39.448Z,14.29
2019-04-23T01:20:09.740Z,14.32
2019-04-23T01:22:23.244Z,14.29
2019-04-23T01:25:19.500Z,14.26
2019-04-23T01:28:11.039Z,14.28
2019-04-23T01:30:49.229Z,14.26
2019-04-23T01:33:29.604Z,14.19
2019-04-23T01:36:03.162Z,14.21
2019-04-23T01:38:31.459Z,14.21
2019-04-23T01:40:53.819Z,14.24
2019-04-23T01:43:30.239Z,14.19
2019-04-23T01:46:01.034Z,14.23
2019-04-23T01:48:39.181Z,14.18
2019-04-23T01:50:56.030Z,14.16
2019-04-23T01:56:13.983Z,14.12
2019-04-23T02:06:28.134Z,14.06
2019-04-23T02:08:56.790Z,14.04
2019-04-23T02:11:28.585Z,14.05
2019-04-23T02:13:55.333Z,14.01
2019-04-23T02:16:30.122Z,13.97
2019-04-23T02:19:03.647Z,13.95
2019-04-23T02:21:35.252Z,13.94
2019-04-23T02:24:09.051Z,13.89
2019-04-23T02:26:39.875Z,13.84
2019-04-23T02:29:15.945Z,13.78
2019-04-23T02:31:58.252Z,13.82
2019-04-23T02:34:35.831Z,13.78
2019-04-23T02:36:57.294Z,13.71
2019-04-23T02:39:31.184Z,13.71
2019-04-23T02:42:07.412Z,13.83
2019-04-23T02:44:24.245Z,13.71
2019-04-23T02:47:10.347Z,13.69
2019-04-23T02:54:46.677Z,13.57
2019-04-23T02:57:09.349Z,13.53
2019-04-23T03:04:52.228Z,13.36
2019-04-23T03:07:34.293Z,13.31
2019-04-23T03:12:31.850Z,13.31
2019-04-23T03:15:20.981Z,13.30
2019-04-23T03:18:11.929Z,13.29
2019-04-23T03:20:53.189Z,13.23
2019-04-23T03:23:25.262Z,13.19
2019-04-23T03:26:01.932Z,13.16
2019-04-23T03:28:49.410Z,13.10
2019-04-23T03:41:27.886Z,13.09
2019-04-23T03:43:42.416Z,13.08
2019-04-23T03:48:51.227Z,13.08
2019-04-23T03:51:26.411Z,13.05
2019-04-23T03:54:03.997Z,13.05
2019-04-23T03:59:27.139Z,13.08
2019-04-23T04:01:37.656Z,13.00
2019-04-23T04:06:48.103Z,12.83
2019-04-23T04:09:33.163Z,12.82
2019-04-23T04:11:42.171Z,12.82
2019-04-23T04:29:40.350Z,12.94
2019-04-23T04:32:00.569Z,12.98
2019-04-23T04:35:07.396Z,12.92
2019-04-23T04:37:35.560Z,12.98
2019-04-23T04:40:07.182Z,12.98
2019-04-23T04:47:36.645Z,12.94
2019-04-23T04:49:59.739Z,12.99
2019-04-23T04:52:46.969Z,12.98
2019-04-23T04:55:00.108Z,12.94
2019-04-23T04:57:40.254Z,13.02
2019-04-23T05:00:13.318Z,13.10
2019-04-23T05:02:53.887Z,13.04
2019-04-23T05:05:37.983Z,13.02
2019-04-23T05:07:48.207Z,12.98
2019-04-23T05:10:28.853Z,13.07
2019-04-23T05:12:52.195Z,13.08
2019-04-23T05:15:17.228Z,13.16
2019-04-23T05:25:47.882Z,13.22
2019-04-23T05:28:28.458Z,13.25
2019-04-23T05:30:52.114Z,13.27
2019-04-23T05:33:22.384Z,13.27
2019-04-23T05:36:15.563Z,13.34
2019-04-23T05:38:37.701Z,13.30
2019-04-23T05:41:03.741Z,13.38
2019-04-23T05:43:32.399Z,13.38
2019-04-23T05:46:09.631Z,13.46
2019-04-23T05:48:37.716Z,13.49
2019-04-23T05:51:14.260Z,13.42
2019-04-23T05:53:42.509Z,13.46
2019-04-23T05:56:15.549Z,13.48
2019-04-23T05:58:48.944Z,13.56
2019-04-23T06:06:37.523Z,13.64
2019-04-23T06:09:09.162Z,13.77
2019-04-23T06:11:47.027Z,13.79
2019-04-23T06:14:17.361Z,13.84
2019-04-23T06:16:54.833Z,13.99
2019-04-23T06:24:29.273Z,13.85
2019-04-23T06:36:58.794Z,14.15
2019-04-23T06:39:36.726Z,14.16
2019-04-23T06:42:03.876Z,14.25
2019-04-23T06:47:12.952Z,14.45
2019-04-23T06:49:49.473Z,14.46
2019-04-23T06:52:18.979Z,14.56
2019-04-23T06:54:56.210Z,14.70
2019-04-23T06:59:52.658Z,14.96
2019-04-23T07:02:30.874Z,16.02
2019-04-23T07:05:03.300Z,17.89
2019-04-23T07:07:46.580Z,18.72
2019-04-23T07:10:05.490Z,19.74
2019-04-23T07:12:36.486Z,20.41
2019-04-23T07:15:25.084Z,21.25
2019-04-23T07:17:34.804Z,21.44
2019-04-23T07:20:15.351Z,21.77
2019-04-23T07:22:46.828Z,22.65
2019-04-23T07:25:17.591Z,22.85
2019-04-23T07:27:53.118Z,22.96
2019-04-23T07:30:24.096Z,22.93
2019-04-23T07:32:57.251Z,23.86
2019-04-23T07:35:35.865Z,24.22
2019-04-23T07:38:20.668Z,24.18
2019-04-23T07:40:40.992Z,24.14
2019-04-23T07:43:23.400Z,24.39
2019-04-23T07:46:19.893Z,25.22
2019-04-23T07:48:43.737Z,24.76
2019-04-23T07:51:14.565Z,24.77
2019-04-23T07:53:53.508Z,24.43
2019-04-23T07:56:25.118Z,26.16
2019-04-23T07:58:58.316Z,25.89
2019-04-23T08:01:26.778Z,26.32
2019-04-23T08:04:18.239Z,26.57
2019-04-23T08:06:31.886Z,26.20
2019-04-23T08:09:06.278Z,26.65
2019-04-23T08:11:52.413Z,26.86
2019-04-23T08:14:02.121Z,26.28
2019-04-23T08:19:17.080Z,27.61
2019-04-23T08:21:40.210Z,27.76
2019-04-23T08:24:38.490Z,27.69
2019-04-23T08:27:18.129Z,27.29
2019-04-23T08:29:48.895Z,27.12
2019-04-23T08:32:19.462Z,26.54
2019-04-23T08:37:34.702Z,26.66
2019-04-23T08:40:04.731Z,26.27
2019-04-23T08:50:44.109Z,27.09
2019-04-23T08:55:53.670Z,27.39
2019-04-23T08:58:36.855Z,26.66
2019-04-23T09:01:00.601Z,27.11
2019-04-23T09:03:33.297Z,26.47
2019-04-23T09:06:06.148Z,27.44
2019-04-23T09:11:19.937Z,27.47
2019-04-23T09:16:09.031Z,28.33
2019-04-23T09:18:45.965Z,26.92
2019-04-23T09:21:14.066Z,26.93
2019-04-23T09:26:24.361Z,26.55
2019-04-23T09:29:17.302Z,25.89
2019-04-23T09:34:31.656Z,26.57
2019-04-23T09:37:06.342Z,25.61
2019-04-23T09:39:43.035Z,25.38
2019-04-23T09:42:38.405Z,24.98
2019-04-23T09:45:26.897Z,24.84
2019-04-23T09:48:11.068Z,24.51
2019-04-23T09:50:38.474Z,23.57
2019-04-23T09:55:41.641Z,22.78
2019-04-23T09:58:15.420Z,22.94
2019-04-23T10:00:51.514Z,22.65
2019-04-23T10:03:21.077Z,22.56
2019-04-23T10:05:49.060Z,22.61
2019-04-23T10:08:19.323Z,22.44
2019-04-23T10:10:47.078Z,22.17
2019-04-23T10:13:19.900Z,22.39
2019-04-23T10:15:52.103Z,22.44
2019-04-23T10:18:24.463Z,22.42
2019-04-23T10:20:54.417Z,22.85
2019-04-23T10:23:25.225Z,22.63
2019-04-23T10:25:56.363Z,22.69
2019-04-23T10:28:45.015Z,22.09
2019-04-23T10:31:14.640Z,22.33
2019-04-23T10:33:46.285Z,22.20
2019-04-23T10:36:19.907Z,22.48
2019-04-23T10:38:55.943Z,22.35
2019-04-23T10:41:22.531Z,22.10
2019-04-23T10:43:58.692Z,22.19
2019-04-23T10:47:32.090Z,22.21
2019-04-23T10:52:33.732Z,22.00
2019-04-23T10:55:06.640Z,21.93
2019-04-23T10:57:31.193Z,21.46
2019-04-23T11:00:12.595Z,21.30
2019-04-23T11:03:12.061Z,21.58
2019-04-23T11:05:37.739Z,21.86
2019-04-23T11:07:50.456Z,21.63
2019-04-23T11:10:23.542Z,21.40
2019-04-23T11:12:50.729Z,21.49
2019-04-23T11:18:08.840Z,21.41
2019-04-23T11:20:45.308Z,21.41
2019-04-23T11:23:01.561Z,21.56
2019-04-23T11:28:13.316Z,21.38
2019-04-23T11:31:09.379Z,21.41
2019-04-23T11:33:19.920Z,21.37
2019-04-23T11:36:19.900Z,21.32
2019-04-23T11:41:00.140Z,21.36
2019-04-23T11:46:19.437Z,21.35
2019-04-23T11:48:51.951Z,21.38
2019-04-23T11:56:32.525Z,21.31
2019-04-23T11:58:44.635Z,21.18
2019-04-23T12:04:48.056Z,20.96
2019-04-23T12:07:26.386Z,20.98
2019-04-23T12:10:07.646Z,20.94
2019-04-23T12:15:03.514Z,21.20
2019-04-23T12:17:45.997Z,21.25
2019-04-23T12:20:14.860Z,21.04
2019-04-23T12:22:51.782Z,20.98
2019-04-23T12:25:32.852Z,20.93
2019-04-23T12:27:59.751Z,21.01
2019-04-23T12:30:25.233Z,20.94
2019-04-23T12:35:24.018Z,21.07
2019-04-23T12:40:44.217Z,21.00
2019-04-23T12:43:17.338Z,21.06
2019-04-23T12:45:42.489Z,21.10
2019-04-23T12:55:57.389Z,21.21
2019-04-23T12:58:26.932Z,21.20
2019-04-23T13:01:00.504Z,21.24
2019-04-23T13:05:59.257Z,21.38
2019-04-23T13:11:13.974Z,21.15
2019-04-23T13:13:50.300Z,21.25
2019-04-23T13:16:16.368Z,21.36
2019-04-23T13:18:52.472Z,21.42
2019-04-23T13:21:46.734Z,21.37
2019-04-23T13:24:20.548Z,21.43
2019-04-23T13:26:44.550Z,21.68
2019-04-23T13:29:34.527Z,21.82
2019-04-23T13:31:56.789Z,21.75
2019-04-23T13:34:42.860Z,21.74
2019-04-23T13:37:00.708Z,21.75
2019-04-23T13:39:41.805Z,21.81
2019-04-23T13:42:15.960Z,21.59
2019-04-23T13:44:43.891Z,21.62
2019-04-23T13:47:25.738Z,21.70
2019-04-23T13:49:55.246Z,21.76
2019-04-23T13:52:43.268Z,21.80
2019-04-23T13:55:04.371Z,21.73
2019-04-23T13:59:57.834Z,21.64
2019-04-23T14:02:34.487Z,21.68
2019-04-23T14:05:26.767Z,21.62
2019-04-23T14:07:56.519Z,21.72
2019-04-23T14:10:29.471Z,21.74
2019-04-23T14:15:42.814Z,21.76
2019-04-23T14:18:22.766Z,21.79
2019-04-23T14:20:31.600Z,21.86
2019-04-23T14:25:50.552Z,21.92
2019-04-23T14:30:59.151Z,22.03
2019-04-23T14:33:17.723Z,21.89
2019-04-23T14:35:45.901Z,21.94
2019-04-23T14:43:22.517Z,22.17
2019-04-23T14:46:38.513Z,22.19
2019-04-23T14:48:51.787Z,22.12
2019-04-23T14:51:32.148Z,21.89
2019-04-23T14:53:48.482Z,21.78
2019-04-23T14:59:04.394Z,22.20
2019-04-23T15:03:57.644Z,22.02
2019-04-23T15:06:39.871Z,21.80
2019-04-23T15:09:19.759Z,21.88
2019-04-23T15:11:48.590Z,21.87
2019-04-23T15:14:11.988Z,22.03
2019-04-23T15:16:43.102Z,21.92
2019-04-23T15:22:04.652Z,21.93
2019-04-23T15:24:26.005Z,21.86
2019-04-23T15:29:20.135Z,21.75
2019-04-23T15:32:13.810Z,21.73
2019-04-23T15:34:48.896Z,21.67
2019-04-23T15:37:20.379Z,21.62
2019-04-23T15:39:50.508Z,21.44
2019-04-23T15:42:16.722Z,21.40
2019-04-23T15:44:48.802Z,21.65
2019-04-23T15:47:33.034Z,21.80
2019-04-23T15:49:57.424Z,21.87
2019-04-23T15:52:18.928Z,21.92
2019-04-23T15:54:57.002Z,21.67
2019-04-23T15:57:40.181Z,21.83
2019-04-23T15:59:55.995Z,21.89
2019-04-23T16:01:59.911Z,21.80
2019-04-23T16:04:29.794Z,21.84
2019-04-23T16:07:02.350Z,21.87
2019-04-23T16:10:14.448Z,21.92
2019-04-23T16:12:31.810Z,21.78
2019-04-23T16:17:37.075Z,21.57
2019-04-23T16:20:27.292Z,21.59
2019-04-23T16:22:44.421Z,21.41
2019-04-23T16:25:17.472Z,21.25
2019-04-23T16:27:59.089Z,21.10
2019-04-23T16:36:19.918Z,20.93
2019-04-23T16:41:07.689Z,20.68
2019-04-23T16:46:11.823Z,20.72
2019-04-23T16:48:53.244Z,20.69
2019-04-23T16:51:29.676Z,20.63
2019-04-23T16:53:46.329Z,20.64
2019-04-23T16:58:54.818Z,20.56
2019-04-23T17:01:35.363Z,20.53
2019-04-23T17:03:56.430Z,20.38
2019-04-23T17:06:29.328Z,20.44
2019-04-23T17:11:49.066Z,20.44
2019-04-23T17:14:09.870Z,20.33
2019-04-23T17:16:36.033Z,20.38
2019-04-23T17:19:13.300Z,20.39
2019-04-23T17:21:38.485Z,20.34
2019-04-23T17:24:21.175Z,20.28
2019-04-23T17:26:46.118Z,20.21
2019-04-23T17:31:45.356Z,20.22
2019-04-23T17:34:30.484Z,20.13
2019-04-23T17:37:13.616Z,20.06
2019-04-23T17:40:18.161Z,20.07
2019-04-23T17:48:34.965Z,20.10
2019-04-23T17:51:10.992Z,20.00
2019-04-23T17:53:56.175Z,19.97
2019-04-23T17:58:52.531Z,19.85
2019-04-23T18:01:20.175Z,19.71
2019-04-23T18:03:55.605Z,19.74
2019-04-23T18:09:00.339Z,19.74
2019-04-23T18:14:02.688Z,19.58
2019-04-23T18:16:40.757Z,19.60
2019-04-23T18:19:07.735Z,19.50
2019-04-23T18:22:01.830Z,19.44
2019-04-23T18:24:56.081Z,19.35
2019-04-23T18:27:19.153Z,19.37
2019-04-23T18:30:11.750Z,19.36
2019-04-23T18:33:43.876Z,19.20
2019-04-23T18:38:18.543Z,19.12
2019-04-23T18:40:58.900Z,19.12
2019-04-23T18:45:54.024Z,19.17
2019-04-23T18:51:05.211Z,19.12
2019-04-23T18:56:06.532Z,18.85
2019-04-23T18:58:52.183Z,18.91
2019-04-23T19:04:05.754Z,18.91
2019-04-23T19:06:41.133Z,18.93
2019-04-23T19:10:11.068Z,18.89
2019-04-23T19:12:44.398Z,18.96
2019-04-23T19:15:13.903Z,18.87
2019-04-23T19:20:35.330Z,18.65
2019-04-23T19:22:53.045Z,18.69
2019-04-23T19:25:23.299Z,18.74
2019-04-23T19:30:37.052Z,18.47
2019-04-23T19:33:25.390Z,18.44
2019-04-23T19:40:56.794Z,18.20
2019-04-23T19:43:25.157Z,18.05
2019-04-23T19:46:03.548Z,17.96
2019-04-23T19:48:33.488Z,17.90
2019-04-23T19:51:02.713Z,17.88
2019-04-23T19:53:44.980Z,17.82
2019-04-23T20:01:21.067Z,17.89
2019-04-23T20:06:19.332Z,17.78
2019-04-23T20:11:21.802Z,17.69
2019-04-23T20:16:30.182Z,17.55
2019-04-23T20:19:10.077Z,17.42
2019-04-23T20:21:30.567Z,17.39
2019-04-23T20:26:23.516Z,17.40
2019-04-23T20:37:12.906Z,17.32
2019-04-23T20:39:50.650Z,17.29
2019-04-23T20:45:06.080Z,17.20
2019-04-23T20:47:30.745Z,17.12
2019-04-23T20:50:03.418Z,17.10
2019-04-23T20:52:22.168Z,17.08
2019-04-23T20:55:02.077Z,17.01
2019-04-23T20:57:55.324Z,16.93
2019-04-23T21:00:43.247Z,16.89
2019-04-23T21:05:36.728Z,16.84
2019-04-23T21:13:29.434Z,16.72
2019-04-23T21:15:52.631Z,16.76
2019-04-23T21:18:22.045Z,16.68
2019-04-23T21:20:50.100Z,16.65
2019-04-23T21:23:17.691Z,16.62
2019-04-23T21:25:52.565Z,16.63
2019-04-23T21:28:40.197Z,16.51
2019-04-23T21:31:22.832Z,16.52
2019-04-23T21:34:05.799Z,16.57
2019-04-23T21:36:51.077Z,16.53
2019-04-23T21:39:53.522Z,16.49
2019-04-23T21:42:24.140Z,16.42
2019-04-23T21:45:28.531Z,16.43
2019-04-23T21:48:06.532Z,16.35
2019-04-23T21:50:45.586Z,16.33
2019-04-23T21:53:04.497Z,16.30
2019-04-23T21:55:38.963Z,16.34
2019-04-23T21:58:07.550Z,16.34
2019-04-23T22:00:46.218Z,16.29
2019-04-23T22:03:11.758Z,16.28
2019-04-23T22:05:42.453Z,16.20
2019-04-23T22:10:45.616Z,16.12
2019-04-23T22:15:54.687Z,16.10
2019-04-23T22:18:12.916Z,15.98
2019-04-23T22:20:49.299Z,16.05
2019-04-23T22:23:18.330Z,16.07
2019-04-23T22:25:56.892Z,16.08
2019-04-23T22:28:18.050Z,16.11
2019-04-23T22:30:54.949Z,16.04
2019-04-23T22:33:26.784Z,16.00
2019-04-23T22:38:30.199Z,16.07
2019-04-23T22:44:02.448Z,16.06
2019-04-23T22:46:16.327Z,16.07
2019-04-23T22:48:51.298Z,16.08
2019-04-23T22:51:31.572Z,16.06
2019-04-23T22:53:52.303Z,16.03
2019-04-23T22:56:24.910Z,15.99
2019-04-23T22:58:56.359Z,15.99
2019-04-23T23:01:25.985Z,15.99
2019-04-23T23:04:04.977Z,16.03
2019-04-23T23:09:22.857Z,15.97
2019-04-23T23:11:49.073Z,15.98
2019-04-23T23:16:54.827Z,15.91
2019-04-23T23:21:58.241Z,15.79
2019-04-23T23:29:20.286Z,15.67
2019-04-23T23:32:17.241Z,15.65
2019-04-23T23:34:41.953Z,15.65
2019-04-23T23:39:49.574Z,15.64
2019-04-23T23:42:11.199Z,15.56
2019-04-23T23:44:58.300Z,15.54
2019-04-23T23:47:38.154Z,15.54
2019-04-23T23:49:54.522Z,15.43
2019-04-23T23:52:27.009Z,15.44
2019-04-23T23:54:52.931Z,15.44
2019-04-23T23:57:23.541Z,15.45
